createdAt,value
2019-05-07T00:01:42.302Z,7.27
2019-05-07T00:04:47.473Z,6.63
2019-05-07T00:07:52.617Z,6.77
2019-05-07T00:10:57.861Z,7.13
2019-05-07T00:14:03.235Z,5.90
2019-05-07T00:17:08.492Z,6.47
2019-05-07T00:20:13.643Z,6.70
2019-05-07T00:23:18.793Z,6.30
2019-05-07T00:26:24.028Z,6.50
2019-05-07T00:29:29.278Z,5.50
2019-05-07T00:32:34.401Z,6.13
2019-05-07T00:35:46.282Z,5.57
2019-05-07T00:38:55.935Z,5.77
2019-05-07T00:42:16.670Z,5.17
2019-05-07T00:45:28.168Z,5.63
2019-05-07T00:48:33.412Z,5.33
2019-05-07T00:51:38.579Z,5.83
2019-05-07T00:54:43.712Z,5.23
2019-05-07T00:57:48.872Z,4.63
2019-05-07T01:00:54.048Z,5.30
2019-05-07T01:03:59.242Z,5.33
2019-05-07T01:07:04.360Z,4.70
2019-05-07T01:10:12.586Z,5.33
2019-05-07T01:13:17.291Z,5.50
2019-05-07T01:16:22.605Z,5.10
2019-05-07T01:19:27.757Z,4.60
2019-05-07T01:22:34.475Z,4.53
2019-05-07T01:25:43.013Z,4.57
2019-05-07T01:29:02.887Z,5.03
2019-05-07T01:32:18.481Z,5.10
2019-05-07T01:35:42.580Z,5.57
2019-05-07T01:38:47.676Z,4.77
2019-05-07T01:41:52.931Z,4.60
2019-05-07T01:44:58.059Z,4.70
2019-05-07T01:48:04.418Z,4.80
2019-05-07T01:51:09.682Z,4.20
2019-05-07T01:54:14.844Z,4.80
2019-05-07T01:57:19.932Z,5.20
2019-05-07T02:00:25.162Z,4.50
2019-05-07T02:03:45.176Z,4.83
2019-05-07T02:07:08.087Z,4.93
2019-05-07T02:10:32.114Z,4.17
2019-05-07T02:13:37.442Z,5.33
2019-05-07T02:16:42.608Z,6.70
2019-05-07T02:19:47.708Z,4.90
2019-05-07T02:22:53.342Z,5.07
2019-05-07T02:25:58.636Z,4.90
2019-05-07T02:29:04.873Z,5.33
2019-05-07T02:32:12.938Z,5.73
2019-05-07T02:35:16.907Z,6.00
2019-05-07T02:38:29.883Z,5.70
2019-05-07T02:41:35.718Z,5.53
2019-05-07T02:44:58.424Z,6.10
2019-05-07T02:48:03.690Z,6.80
2019-05-07T02:51:18.847Z,6.63
2019-05-07T02:54:32.864Z,7.30
2019-05-07T02:57:38.277Z,6.37
2019-05-07T03:00:43.630Z,6.50
2019-05-07T03:03:48.916Z,6.43
2019-05-07T03:06:54.450Z,5.90
2019-05-07T03:10:03.204Z,5.10
2019-05-07T03:13:07.110Z,5.87
2019-05-07T03:16:13.057Z,5.27
2019-05-07T03:19:18.617Z,5.00
2019-05-07T03:22:23.799Z,4.27
2019-05-07T03:25:34.077Z,4.13
2019-05-07T03:28:58.057Z,4.13
2019-05-07T03:32:28.648Z,3.20
2019-05-07T03:35:45.916Z,3.13
2019-05-07T03:38:47.997Z,3.60
2019-05-07T03:41:53.315Z,3.30
2019-05-07T03:45:13.703Z,4.10
2019-05-07T03:48:20.199Z,3.30
2019-05-07T03:51:25.398Z,3.40
2019-05-07T03:54:33.758Z,3.60
2019-05-07T03:57:37.386Z,3.80
2019-05-07T04:00:44.191Z,3.47
2019-05-07T04:03:49.411Z,3.83
2019-05-07T04:06:54.678Z,3.30
2019-05-07T04:09:59.869Z,3.30
2019-05-07T04:13:06.540Z,3.67
2019-05-07T04:16:13.505Z,3.63
2019-05-07T04:19:18.543Z,4.53
2019-05-07T04:22:28.629Z,5.37
2019-05-07T04:25:48.467Z,5.20
2019-05-07T04:29:06.132Z,5.20
2019-05-07T04:32:14.356Z,4.67
2019-05-07T04:35:35.286Z,5.50
2019-05-07T04:38:40.482Z,6.07
2019-05-07T04:41:46.700Z,7.10
2019-05-07T04:44:53.958Z,6.97
2019-05-07T04:47:58.839Z,6.90
2019-05-07T04:51:05.709Z,8.10
2019-05-07T04:54:13.232Z,8.50
2019-05-07T04:57:28.205Z,7.97
2019-05-07T05:00:33.779Z,6.70
2019-05-07T05:03:43.430Z,7.70
2019-05-07T05:06:48.748Z,6.77
2019-05-07T05:09:53.927Z,6.40
2019-05-07T05:12:59.143Z,7.43
2019-05-07T05:16:23.717Z,7.33
2019-05-07T05:19:28.854Z,7.10
2019-05-07T05:22:53.763Z,6.63
2019-05-07T05:25:58.983Z,7.03
2019-05-07T05:29:04.318Z,7.20
2019-05-07T05:32:11.890Z,6.70
2019-05-07T05:35:17.317Z,7.87
2019-05-07T05:38:25.492Z,8.03
2019-05-07T05:41:34.152Z,6.43
2019-05-07T05:44:41.748Z,6.80
2019-05-07T05:48:01.106Z,6.73
2019-05-07T05:51:19.079Z,5.80
2019-05-07T05:54:32.029Z,6.60
2019-05-07T05:57:53.485Z,6.33
2019-05-07T06:01:17.616Z,6.23
2019-05-07T06:04:35.734Z,6.10
2019-05-07T06:07:46.618Z,5.87
2019-05-07T06:11:04.901Z,5.97
2019-05-07T06:14:14.948Z,5.10
2019-05-07T06:17:39.036Z,5.57
2019-05-07T06:20:57.299Z,6.10
2019-05-07T06:24:04.352Z,5.67
2019-05-07T06:27:09.547Z,5.93
2019-05-07T06:30:14.897Z,7.27
2019-05-07T06:33:20.064Z,5.80
2019-05-07T06:36:25.270Z,6.77
2019-05-07T06:39:36.859Z,6.20
2019-05-07T06:43:03.143Z,7.00
2019-05-07T06:46:12.662Z,7.40
2019-05-07T06:49:17.395Z,7.60
2019-05-07T06:52:22.850Z,7.30
2019-05-07T06:55:32.354Z,8.03
2019-05-07T06:58:49.257Z,6.90
2019-05-07T07:02:22.867Z,8.20
2019-05-07T07:05:45.811Z,7.40
2019-05-07T07:08:56.842Z,6.87
2019-05-07T07:12:03.866Z,4.90
2019-05-07T07:15:09.292Z,7.30
2019-05-07T07:18:14.598Z,7.10
2019-05-07T07:21:21.982Z,6.73
2019-05-07T07:24:30.284Z,6.90
2019-05-07T07:27:35.424Z,6.73
2019-05-07T07:30:48.429Z,6.70
2019-05-07T07:33:54.183Z,6.93
2019-05-07T07:37:15.186Z,7.00
2019-05-07T07:40:32.777Z,7.80
2019-05-07T07:43:37.999Z,7.20
2019-05-07T07:46:43.140Z,7.50
2019-05-07T07:49:48.268Z,7.00
2019-05-07T07:52:53.424Z,7.40
2019-05-07T07:56:16.177Z,7.13
2019-05-07T07:59:46.365Z,7.03
2019-05-07T08:02:56.169Z,7.73
2019-05-07T08:06:02.192Z,5.37
2019-05-07T08:09:09.039Z,5.53
2019-05-07T08:12:14.217Z,6.57
2019-05-07T08:15:21.835Z,6.60
2019-05-07T08:18:27.482Z,7.30
2019-05-07T08:21:33.268Z,7.43
2019-05-07T08:24:38.479Z,5.80
2019-05-07T08:27:43.634Z,6.07
2019-05-07T08:30:59.546Z,5.20
2019-05-07T08:34:14.229Z,6.20
2019-05-07T08:37:24.329Z,4.30
2019-05-07T08:40:27.708Z,5.53
2019-05-07T08:43:32.967Z,5.17
2019-05-07T08:46:57.139Z,5.00
2019-05-07T08:50:02.877Z,4.50
2019-05-07T08:53:09.279Z,4.13
2019-05-07T08:56:14.513Z,4.63
2019-05-07T08:59:19.765Z,4.27
2019-05-07T09:02:24.879Z,4.10
2019-05-07T09:05:32.194Z,3.90
2019-05-07T09:08:36.908Z,4.70
2019-05-07T09:11:42.667Z,4.70
2019-05-07T09:14:52.915Z,4.20
2019-05-07T09:17:58.343Z,4.00
2019-05-07T09:21:03.600Z,3.67
2019-05-07T09:24:09.147Z,4.40
2019-05-07T09:27:32.723Z,4.00
2019-05-07T09:30:56.612Z,3.97
2019-05-07T09:34:02.645Z,4.27
2019-05-07T09:37:09.562Z,4.13
2019-05-07T09:40:14.956Z,3.50
2019-05-07T09:43:21.892Z,4.30
2019-05-07T09:46:27.550Z,4.43
2019-05-07T09:49:32.778Z,3.97
2019-05-07T09:52:38.123Z,3.53
2019-05-07T09:55:44.944Z,3.57
2019-05-07T09:58:53.047Z,4.20
2019-05-07T10:01:58.503Z,3.70
2019-05-07T10:05:03.803Z,3.87
2019-05-07T10:08:09.226Z,3.93
2019-05-07T10:11:19.578Z,3.80
2019-05-07T10:14:24.925Z,5.00
2019-05-07T10:17:51.763Z,4.20
2019-05-07T10:20:57.039Z,3.77
2019-05-07T10:24:02.497Z,4.07
2019-05-07T10:27:07.848Z,4.03
2019-05-07T10:30:13.269Z,4.40
2019-05-07T10:33:20.027Z,4.50
2019-05-07T10:36:27.502Z,4.20
2019-05-07T10:39:32.958Z,4.27
2019-05-07T10:42:38.210Z,4.40
2019-05-07T10:46:02.386Z,4.13
2019-05-07T10:49:25.846Z,3.80
2019-05-07T10:52:31.842Z,3.83
2019-05-07T10:55:37.227Z,4.93
2019-05-07T10:58:42.378Z,4.30
2019-05-07T11:02:18.834Z,4.33
2019-05-07T11:05:23.989Z,5.50
2019-05-07T11:08:36.039Z,4.80
2019-05-07T11:11:36.265Z,4.50
2019-05-07T11:14:41.538Z,5.00
2019-05-07T11:18:08.328Z,4.60
2019-05-07T11:21:13.902Z,4.67
2019-05-07T11:24:19.019Z,4.30
2019-05-07T11:27:24.288Z,4.50
2019-05-07T11:30:29.483Z,3.90
2019-05-07T11:33:34.601Z,4.13
2019-05-07T11:36:39.739Z,3.97
2019-05-07T11:39:44.910Z,4.30
2019-05-07T11:43:02.649Z,4.77
2019-05-07T11:46:35.733Z,4.67
2019-05-07T11:49:58.629Z,4.87
2019-05-07T11:53:06.610Z,4.03
2019-05-07T11:56:11.817Z,4.60
2019-05-07T11:59:17.009Z,4.50
2019-05-07T12:02:22.722Z,4.80
2019-05-07T12:05:27.962Z,5.00
2019-05-07T12:08:42.874Z,5.13
2019-05-07T12:11:40.011Z,4.63
2019-05-07T12:14:45.196Z,5.30
2019-05-07T12:17:52.141Z,4.90
2019-05-07T12:21:06.693Z,4.67
2019-05-07T12:24:09.123Z,5.00
2019-05-07T12:27:14.305Z,4.60
2019-05-07T12:30:38.060Z,4.87
2019-05-07T12:33:53.857Z,5.10
2019-05-07T12:37:01.707Z,4.93
2019-05-07T12:40:26.477Z,4.07
2019-05-07T12:43:35.024Z,4.80
2019-05-07T12:46:42.118Z,4.87
2019-05-07T12:49:46.993Z,4.70
2019-05-07T12:53:14.193Z,4.43
2019-05-07T12:56:19.359Z,4.80
2019-05-07T12:59:24.496Z,5.13
2019-05-07T13:02:44.102Z,5.00
2019-05-07T13:05:47.815Z,4.83
2019-05-07T13:08:53.009Z,4.93
2019-05-07T13:11:58.150Z,4.50
2019-05-07T13:15:03.350Z,4.47
2019-05-07T13:18:08.714Z,4.63
2019-05-07T13:21:13.984Z,4.80
2019-05-07T13:24:19.243Z,4.37
2019-05-07T13:27:24.419Z,4.43
2019-05-07T13:30:29.618Z,4.50
2019-05-07T13:33:35.341Z,4.50
2019-05-07T13:36:43.773Z,4.50
2019-05-07T13:40:08.063Z,4.30
2019-05-07T13:43:20.244Z,4.03
2019-05-07T13:46:25.580Z,5.10
2019-05-07T13:49:32.318Z,5.20
2019-05-07T13:52:37.732Z,4.97
2019-05-07T13:55:43.027Z,4.50
2019-05-07T13:58:48.195Z,5.80
2019-05-07T14:02:06.664Z,4.40
2019-05-07T14:05:13.989Z,4.73
2019-05-07T14:08:19.740Z,4.60
2019-05-07T14:11:26.609Z,4.53
2019-05-07T14:14:34.512Z,3.97
2019-05-07T14:17:39.177Z,4.63
2019-05-07T14:20:51.230Z,4.03
2019-05-07T14:23:58.077Z,4.50
2019-05-07T14:27:03.220Z,4.37
2019-05-07T14:30:08.766Z,5.10
2019-05-07T14:33:19.242Z,4.97
2019-05-07T14:36:29.199Z,4.93
2019-05-07T14:39:34.379Z,4.70
2019-05-07T14:42:44.824Z,4.37
2019-05-07T14:45:52.230Z,4.07
2019-05-07T14:48:57.711Z,3.63
2019-05-07T14:52:02.923Z,4.23
2019-05-07T14:55:08.299Z,4.33
2019-05-07T14:58:23.013Z,4.33
2019-05-07T15:01:34.057Z,3.67
2019-05-07T15:04:41.978Z,4.07
2019-05-07T15:07:47.230Z,4.17
2019-05-07T15:10:52.603Z,3.97
2019-05-07T15:13:57.924Z,4.27
2019-05-07T15:17:12.847Z,4.90
2019-05-07T15:20:18.383Z,5.47
2019-05-07T15:26:42.408Z,5.10
2019-05-07T15:29:47.554Z,4.50
2019-05-07T15:32:52.696Z,4.20
2019-05-07T15:35:57.831Z,4.77
2019-05-07T15:39:03.000Z,4.70
2019-05-07T15:42:09.927Z,5.00
2019-05-07T15:45:15.227Z,5.20
2019-05-07T15:48:22.006Z,5.00
2019-05-07T15:51:27.540Z,4.30
2019-05-07T15:54:32.780Z,4.33
2019-05-07T15:57:38.662Z,5.30
2019-05-07T16:00:44.176Z,5.53
2019-05-07T16:03:54.366Z,4.20
2019-05-07T16:06:58.030Z,4.63
2019-05-07T16:10:03.274Z,5.07
2019-05-07T16:13:11.858Z,5.23
2019-05-07T16:16:17.219Z,5.80
2019-05-07T16:19:26.979Z,4.80
2019-05-07T16:22:36.195Z,4.87
2019-05-07T16:25:42.237Z,5.57
2019-05-07T16:28:47.844Z,5.43
2019-05-07T16:31:54.056Z,5.93
2019-05-07T16:34:59.215Z,5.77
2019-05-07T16:38:04.516Z,5.60
2019-05-07T16:41:13.341Z,5.50
2019-05-07T16:44:16.535Z,6.63
2019-05-07T16:47:22.813Z,6.30
2019-05-07T16:50:28.175Z,6.20
2019-05-07T16:53:35.286Z,6.43
2019-05-07T16:56:59.738Z,6.17
2019-05-07T17:00:08.433Z,6.53
2019-05-07T17:03:17.687Z,6.40
2019-05-07T17:06:25.238Z,7.40
2019-05-07T17:09:31.516Z,6.90
2019-05-07T17:12:38.264Z,8.37
2019-05-07T17:15:56.896Z,8.07
2019-05-07T17:19:02.651Z,7.30
2019-05-07T17:22:08.056Z,8.03
2019-05-07T17:25:33.268Z,8.87
2019-05-07T17:28:37.955Z,9.10
2019-05-07T17:31:43.160Z,8.90
2019-05-07T17:34:48.456Z,8.80
2019-05-07T17:38:08.922Z,8.80
2019-05-07T17:41:13.058Z,8.97
2019-05-07T17:44:15.085Z,6.60
2019-05-07T17:47:21.841Z,6.53
2019-05-07T17:50:33.385Z,6.70
2019-05-07T17:53:38.600Z,8.40
2019-05-07T17:56:43.914Z,9.50
2019-05-07T17:59:49.225Z,9.30
2019-05-07T18:03:32.482Z,7.13
2019-05-07T18:06:38.569Z,6.37
2019-05-07T18:09:44.864Z,7.70
2019-05-07T18:12:53.302Z,7.40
2019-05-07T18:16:02.766Z,8.40
2019-05-07T18:19:07.637Z,7.80
2019-05-07T18:22:12.907Z,8.20
2019-05-07T18:25:18.149Z,7.10
2019-05-07T18:28:27.821Z,7.43
2019-05-07T18:31:54.938Z,7.50
2019-05-07T18:35:02.203Z,8.10
2019-05-07T18:38:06.999Z,8.83
2019-05-07T18:41:12.395Z,8.07
2019-05-07T18:44:19.020Z,7.53
2019-05-07T18:47:24.150Z,8.47
2019-05-07T18:50:29.331Z,8.37
2019-05-07T18:53:34.599Z,8.97
2019-05-07T18:56:41.897Z,8.90
2019-05-07T18:59:46.757Z,9.20
2019-05-07T19:02:52.355Z,10.20
2019-05-07T19:05:58.461Z,9.80
2019-05-07T19:09:05.116Z,11.10
2019-05-07T19:12:13.216Z,9.60
2019-05-07T19:15:18.865Z,9.40
2019-05-07T19:18:24.154Z,10.77
2019-05-07T19:21:31.837Z,10.17
2019-05-07T19:24:45.238Z,10.10
2019-05-07T19:27:43.606Z,10.20
2019-05-07T19:30:52.836Z,9.73
2019-05-07T19:33:58.331Z,9.87
2019-05-07T19:37:03.462Z,9.83
2019-05-07T19:40:09.025Z,9.43
2019-05-07T19:43:14.317Z,9.77
2019-05-07T19:46:19.624Z,10.10
2019-05-07T19:49:25.876Z,9.87
2019-05-07T19:52:33.085Z,10.37
2019-05-07T19:55:55.900Z,9.90
2019-05-07T19:59:01.128Z,10.40
2019-05-07T20:02:08.253Z,10.30
2019-05-07T20:05:14.510Z,10.47
2019-05-07T20:08:21.450Z,9.87
2019-05-07T20:11:56.151Z,10.07
2019-05-07T20:15:02.789Z,9.27
2019-05-07T20:18:08.339Z,9.60
2019-05-07T20:21:13.609Z,10.20
2019-05-07T20:24:18.845Z,10.37
2019-05-07T20:27:24.116Z,10.17
2019-05-07T20:30:29.347Z,10.50
2019-05-07T20:33:34.510Z,10.40
2019-05-07T20:36:39.672Z,11.20
2019-05-07T20:39:44.815Z,11.07
2019-05-07T20:42:52.358Z,10.27
2019-05-07T20:45:56.868Z,10.03
2019-05-07T20:49:02.913Z,10.13
2019-05-07T20:52:08.576Z,10.20
2019-05-07T20:55:31.507Z,10.67
2019-05-07T20:58:36.967Z,9.50
2019-05-07T21:01:42.239Z,10.47
2019-05-07T21:04:47.461Z,9.90
2019-05-07T21:07:52.645Z,9.17
2019-05-07T21:10:57.917Z,10.00
2019-05-07T21:14:03.359Z,11.07
2019-05-07T21:17:08.634Z,10.40
2019-05-07T21:20:13.806Z,10.70
2019-05-07T21:23:18.951Z,9.77
2019-05-07T21:26:24.115Z,9.60
2019-05-07T21:29:29.250Z,10.60
2019-05-07T21:32:34.421Z,9.70
2019-05-07T21:35:39.654Z,10.23
2019-05-07T21:38:44.851Z,9.90
2019-05-07T21:41:51.944Z,9.60
2019-05-07T21:44:56.869Z,10.53
2019-05-07T21:48:02.564Z,9.77
2019-05-07T21:51:07.790Z,9.40
2019-05-07T21:54:23.717Z,10.10
2019-05-07T21:57:47.887Z,9.13
2019-05-07T22:01:08.434Z,11.03
2019-05-07T22:04:15.369Z,10.63
2019-05-07T22:07:22.573Z,10.10
2019-05-07T22:10:27.419Z,9.90
2019-05-07T22:13:33.004Z,9.50
2019-05-07T22:16:38.429Z,9.13
2019-05-07T22:19:43.562Z,9.30
2019-05-07T22:22:48.683Z,10.47
2019-05-07T22:25:53.794Z,9.67
2019-05-07T22:29:02.896Z,9.27
2019-05-07T22:32:29.584Z,10.13
2019-05-07T22:35:39.389Z,10.60
2019-05-07T22:39:05.296Z,9.70
2019-05-07T22:42:12.139Z,9.90
2019-05-07T22:45:17.703Z,10.20
2019-05-07T22:48:23.016Z,9.53
2019-05-07T22:51:28.179Z,9.20
2019-05-07T22:54:33.308Z,9.30
2019-05-07T22:57:44.328Z,9.40
2019-05-07T23:00:54.069Z,9.80
2019-05-07T23:03:59.254Z,9.73
2019-05-07T23:07:04.395Z,10.60
2019-05-07T23:10:11.929Z,9.97
2019-05-07T23:13:17.371Z,9.97
2019-05-07T23:16:23.173Z,9.67
2019-05-07T23:19:28.508Z,9.77
2019-05-07T23:22:33.661Z,10.47
2019-05-07T23:25:38.826Z,9.57
2019-05-07T23:28:43.959Z,9.77
2019-05-07T23:31:49.124Z,9.00
2019-05-07T23:34:54.314Z,9.80
2019-05-07T23:37:59.520Z,10.50
2019-05-07T23:41:22.272Z,10.30
2019-05-07T23:44:27.696Z,10.17
2019-05-07T23:47:32.792Z,8.93
2019-05-07T23:50:37.919Z,10.00
2019-05-07T23:53:44.392Z,9.90
2019-05-07T23:57:02.862Z,9.10
2019-05-07T23:59:56.508Z,9.20
